Weather at Flying F Airport

Public forecast

Using degrees Fahrenheit for public forecast. Weather courtesy of forecast.io.

Closest aviation weather report (METAR) to Flying F Airport

Closest report is Niagara Falls International Airport, 7.5 nm (13.8 km) WNW.

2024/05/19 01:53 (retrieved 10 minutes ago)

KIAG 190153Z 01003KT 10SM CLR 17/14 A2993 RMK AO2 SLP134 T01720139

Closest aviation forecast (TAF) to Flying F Airport

Forecast is more than 6 hours old.

Closest forecast is Peterborough Municipal Airport, 71.3 nm (132.0 km) NNE.

2024/05/18 20:00 (retrieved 6 hours ago)

TAF CYPQ 181940Z 1820/1902 10008KT P6SM SCT025 BKN040 TEMPO 1820/1823 BKN020 BKN040 FM190000 12005KT P6SM SCT030 RMK FCST BASED ON AUTO OBS NXT FCST BY 191000Z